XGG weather

Gorom-Gorom Airport
Gorom-Gorom, Oudalan, Burkina Faso

Public forecast

Using degrees Celsius for public forecast. Weather courtesy of forecast.io.

METAR (pilot weather report)

Report is more than 6 hours old.

Closest report is Dori Airport, 27.6 nm (51.1 km) SSE. Retrieved 2009/09/21 17:00 UTC (10 years ago):

DFEE 211700Z 14002KT 9/9 FEW020 BKN260 34/21

TAF (pilot weather forecast)

Closest forecast is Gao Airport, 108.8 nm (201.5 km) N. Retrieved 2019/03/25 12:51 UTC (2 hours ago):

TAF GAGO 251130Z 2512/2612 10012G25KT 8000 NSC TEMPO 2512/2520 2000 BLDU TEMPO 2606/2614 3000 DU